Time;durP1;ratioP1;P1;durP2;ratioP2;P2;SDS_P1;SDS_P2;PMS_P1;PMS_P2;Temp;Humidity;BMP_temperature;BMP_pressure;BME280_temperature;BME280_humidity;BME280_pressure;Samples;Min_cycle;Max_cycle;Signal;HPM_P1;HPM_P2
2021/12/11 00:00:57;;;;;;;43.28;26.92;;;;;;;3.82;81.56;98454.41;4975948;28;20049;-59
2021/12/11 00:03:28;;;;;;;42.67;26.60;;;;;;;4.05;78.13;98459.47;4979432;28;20635;-76
2021/12/11 00:06:04;;;;;;;40.83;25.50;;;;;;;3.87;78.10;98470.72;4989376;28;20034;-78
2021/12/11 00:08:31;;;;;;;49.75;29.67;;;;;;;3.65;78.86;98476.81;4988012;28;20039;-77
2021/12/11 00:11:06;;;;;;;41.60;25.48;;;;;;;3.54;79.46;98486.84;4951835;28;20039;-77
2021/12/11 00:13:36;;;;;;;39.50;24.77;;;;;;;3.49;80.20;98480.97;4975285;28;20054;-77
2021/12/11 00:16:03;;;;;;;50.88;30.48;;;;;;;3.31;80.56;98482.59;4970156;28;20042;-77
2021/12/11 00:18:29;;;;;;;56.33;30.77;;;;;;;3.28;81.21;98487.09;4971805;28;20038;-76
2021/12/11 00:21:08;;;;;;;42.15;24.85;;;;;;;3.26;81.54;98499.31;4971774;28;20067;-78
2021/12/11 00:23:42;;;;;;;43.42;26.13;;;;;;;3.25;81.35;98497.59;4974707;28;20154;-78
2021/12/11 00:26:12;;;;;;;44.95;25.35;;;;;;;3.21;81.07;98515.97;4966060;28;20043;-78
2021/12/11 00:28:52;;;;;;;38.42;25.35;;;;;;;3.21;81.11;98525.53;4966222;28;20042;-75
2021/12/11 00:31:18;;;;;;;40.85;25.92;;;;;;;3.20;80.65;98527.31;4971469;28;20038;-77
2021/12/11 00:33:47;;;;;;;36.25;24.35;;;;;;;3.16;80.59;98530.94;4953131;28;20109;-77
2021/12/11 00:36:16;;;;;;;48.85;30.20;;;;;;;3.13;80.89;98531.06;4951277;28;20049;-77
2021/12/11 00:38:42;;;;;;;51.83;28.10;;;;;;;3.12;81.47;98531.94;4952349;28;20035;-77
2021/12/11 00:41:11;;;;;;;42.85;26.15;;;;;;;3.15;81.24;98539.66;4954295;28;20136;-76
2021/12/11 00:43:37;;;;;;;46.33;25.88;;;;;;;3.18;81.48;98543.91;4951367;28;20154;-76
2021/12/11 00:46:07;;;;;;;47.13;25.77;;;;;;;3.17;81.17;98543.03;4950098;28;20059;-77
2021/12/11 00:48:33;;;;;;;49.47;28.50;;;;;;;3.15;81.66;98549.19;4950467;28;20043;-78
2021/12/11 00:51:01;;;;;;;52.05;29.70;;;;;;;3.12;81.19;98557.97;4950311;28;20058;-78
2021/12/11 00:53:33;;;;;;;54.65;31.90;;;;;;;3.12;81.65;98557.13;4950123;28;20054;-76
2021/12/11 00:56:06;;;;;;;48.67;30.75;;;;;;;3.13;81.83;98564.06;4949712;28;20067;-77
2021/12/11 00:58:35;;;;;;;47.92;29.80;;;;;;;3.13;81.55;98572.72;4959376;28;20039;-77
2021/12/11 01:01:06;;;;;;;51.88;30.63;;;;;;;3.13;81.69;98574.47;4967262;28;20050;-77
2021/12/11 01:03:35;;;;;;;51.70;29.05;;;;;;;3.11;81.22;98582.34;4970013;28;20035;-76
2021/12/11 01:06:08;;;;;;;55.25;31.48;;;;;;;3.09;81.49;98586.75;4967488;28;20036;-77
2021/12/11 01:08:39;;;;;;;48.00;27.15;;;;;;;3.11;81.45;98604.94;4953897;28;20455;-76
2021/12/11 01:11:11;;;;;;;56.70;32.90;;;;;;;3.12;81.56;98604.00;4934024;29;20043;-77
2021/12/11 01:13:48;;;;;;;53.75;30.98;;;;;;;3.10;81.57;98608.41;4949307;28;20099;-76
2021/12/11 01:16:16;;;;;;;58.35;30.63;;;;;;;3.04;82.14;98611.28;4949822;28;20118;-75
2021/12/11 01:18:46;;;;;;;59.13;34.80;;;;;;;3.03;82.63;98618.25;4963399;28;20027;-76
2021/12/11 01:24:27;;;;;;;56.50;33.60;;;;;;;3.03;83.07;98633.88;4969717;28;20051;-75
2021/12/11 01:26:55;;;;;;;58.97;33.70;;;;;;;3.01;83.06;98638.28;4969082;28;20031;-75
2021/12/11 01:29:24;;;;;;;63.80;34.53;;;;;;;3.01;83.12;98641.72;4969523;28;20051;-77
2021/12/11 01:31:51;;;;;;;67.80;35.53;;;;;;;3.04;83.37;98650.31;4960095;28;20027;-75
2021/12/11 01:34:18;;;;;;;65.28;35.75;;;;;;;3.05;83.33;98658.06;4950277;28;20066;-77
2021/12/11 01:36:43;;;;;;;65.45;34.63;;;;;;;3.06;83.33;98669.34;4956858;28;20046;-77
2021/12/11 01:39:13;;;;;;;63.13;35.35;;;;;;;3.02;83.08;98666.00;4962048;28;20094;-78
2021/12/11 01:41:40;;;;;;;57.15;35.05;;;;;;;3.01;83.44;98672.97;4966129;28;20031;-80
2021/12/11 01:44:13;;;;;;;74.55;39.35;;;;;;;3.05;83.32;98681.50;4958509;28;20075;-77
2021/12/11 01:46:39;;;;;;;62.17;34.65;;;;;;;3.01;83.50;98675.56;4953208;28;20135;-76
2021/12/11 01:49:11;;;;;;;68.63;37.63;;;;;;;3.02;83.53;98684.22;4953741;28;20039;-75
2021/12/11 01:51:43;;;;;;;73.18;37.30;;;;;;;3.04;83.51;98686.78;4953123;29;20031;-79
2021/12/11 01:54:19;;;;;;;72.38;40.85;;;;;;;3.06;83.37;98690.19;4953482;28;20039;-77
2021/12/11 01:56:49;;;;;;;61.90;35.78;;;;;;;3.08;83.11;98701.41;4955444;28;20043;-78
2021/12/11 01:59:25;;;;;;;59.85;35.65;;;;;;;3.10;83.45;98712.56;4957359;28;20043;-77
2021/12/11 02:01:57;;;;;;;66.32;33.92;;;;;;;3.07;83.49;98723.94;4917768;28;20554;-78
2021/12/11 02:04:26;;;;;;;63.78;35.75;;;;;;;3.06;83.33;98724.03;4950011;28;20142;-78
2021/12/11 02:06:53;;;;;;;61.10;37.28;;;;;;;3.04;83.34;98724.06;4952999;28;20035;-74
2021/12/11 02:09:21;;;;;;;67.25;34.40;;;;;;;3.01;83.31;98729.41;4963598;28;20043;-78
2021/12/11 02:11:52;;;;;;;60.67;33.13;;;;;;;3.06;83.33;98742.25;4971118;28;20122;-75
2021/12/11 02:14:25;;;;;;;67.50;35.80;;;;;;;3.05;83.44;98738.78;4973632;28;20034;-75
2021/12/11 02:16:54;;;;;;;67.32;34.53;;;;;;;3.06;82.91;98752.66;4986926;28;20047;-76
2021/12/11 02:19:30;;;;;;;58.25;34.95;;;;;;;3.03;82.95;98745.81;4996216;28;20925;-76
2021/12/11 02:22:07;;;;;;;64.72;35.60;;;;;;;2.98;82.75;98742.53;4992901;28;20027;-74
2021/12/11 02:24:41;;;;;;;55.55;33.17;;;;;;;2.99;82.95;98752.03;4974059;28;20054;-78
2021/12/11 02:27:12;;;;;;;54.33;32.47;;;;;;;3.04;82.71;98759.69;4974494;28;20112;-76
2021/12/11 02:29:44;;;;;;;59.63;32.95;;;;;;;2.96;82.54;98762.56;4974125;28;20031;-76
2021/12/11 02:32:32;;;;;;;57.40;32.20;;;;;;;2.92;83.01;98771.38;4973025;28;20073;-76
2021/12/11 02:35:25;;;;;;;55.38;32.70;;;;;;;2.92;82.65;98776.56;4972963;28;20049;-75
2021/12/11 02:38:05;;;;;;;55.72;32.83;;;;;;;2.92;82.71;98785.22;4971622;28;20111;-75
2021/12/11 02:40:49;;;;;;;61.63;32.10;;;;;;;2.91;82.69;98780.09;4974284;28;20089;-75
2021/12/11 02:43:29;;;;;;;56.15;32.17;;;;;;;2.92;82.33;98784.38;4973530;28;20046;-76
2021/12/11 02:46:20;;;;;;;59.08;31.48;;;;;;;2.93;82.31;98791.28;4971610;28;20041;-76
2021/12/11 02:49:09;;;;;;;55.88;31.80;;;;;;;2.92;82.71;98793.03;4972669;28;20776;-78
2021/12/11 02:51:41;;;;;;;54.97;31.25;;;;;;;2.92;82.48;98798.22;4972750;28;20030;-73
2021/12/11 02:54:13;;;;;;;51.72;28.23;;;;;;;2.92;81.92;98797.38;4972410;28;20035;-73
2021/12/11 02:56:43;;;;;;;55.83;32.55;;;;;;;2.89;82.15;98794.91;4972099;28;20088;-78
2021/12/11 02:59:15;;;;;;;56.70;33.05;;;;;;;2.86;82.31;98802.81;4977026;28;20384;-75
2021/12/11 03:01:51;;;;;;;56.40;32.15;;;;;;;2.87;82.48;98802.75;4982843;28;20097;-74
2021/12/11 03:04:28;;;;;;;55.22;30.70;;;;;;;2.89;81.99;98810.53;4976445;28;20070;-76
2021/12/11 03:06:57;;;;;;;52.17;28.48;;;;;;;2.88;81.89;98819.22;4971490;28;20030;-76
2021/12/11 03:09:28;;;;;;;50.75;29.85;;;;;;;2.87;81.85;98812.31;4970592;28;20486;-76
2021/12/11 03:11:55;;;;;;;56.05;28.50;;;;;;;2.89;81.89;98816.56;4971555;28;20081;-75
2021/12/11 03:14:24;;;;;;;70.22;34.10;;;;;;;2.93;81.84;98818.19;4969845;28;20042;-77
2021/12/11 03:16:51;;;;;;;52.22;29.90;;;;;;;2.91;81.82;98822.56;4970195;28;20034;-76
2021/12/11 03:19:22;;;;;;;56.53;32.72;;;;;;;2.88;81.93;98827.91;4971698;28;20031;-76
2021/12/11 03:21:48;;;;;;;51.15;29.65;;;;;;;2.87;81.94;98833.97;4972017;28;20038;-77
2021/12/11 03:24:14;;;;;;;56.70;32.15;;;;;;;2.88;81.88;98842.63;4959576;28;20039;-75
2021/12/11 03:26:42;;;;;;;57.85;32.03;;;;;;;2.91;82.19;98842.56;4954204;28;20574;-76
2021/12/11 03:29:08;;;;;;;52.80;29.00;;;;;;;2.88;81.75;98846.13;4952077;28;20073;-77
2021/12/11 03:31:38;;;;;;;53.97;28.15;;;;;;;2.83;81.20;98854.97;4951998;28;20035;-76
2021/12/11 03:34:07;;;;;;;48.53;27.60;;;;;;;2.80;81.03;98859.34;4951396;28;20039;-77
2021/12/11 03:36:34;;;;;;;53.38;30.45;;;;;;;2.82;81.12;98867.13;4950417;28;20031;-77
2021/12/11 03:39:06;;;;;;;52.00;31.73;;;;;;;2.84;81.51;98867.94;4954454;28;20039;-77
2021/12/11 03:41:32;;;;;;;57.95;31.95;;;;;;;2.88;81.75;98873.88;4955218;28;20031;-76
2021/12/11 03:43:58;;;;;;;55.35;30.83;;;;;;;2.87;81.86;98875.63;4955106;28;20044;-76
2021/12/11 03:46:24;;;;;;;51.70;29.67;;;;;;;2.90;81.50;98880.72;4953368;28;20039;-76
2021/12/11 03:48:55;;;;;;;55.67;31.17;;;;;;;2.88;81.35;98881.69;4952407;28;20656;-75
2021/12/11 03:51:26;;;;;;;52.42;30.95;;;;;;;2.85;81.42;98889.59;4951472;28;20039;-76
2021/12/11 03:53:52;;;;;;;56.72;30.95;;;;;;;2.84;81.49;98887.91;4950676;28;20034;-77
2021/12/11 03:56:18;;;;;;;53.05;31.88;;;;;;;2.85;81.47;98895.66;4957911;28;20110;-76
2021/12/11 03:58:49;;;;;;;48.40;28.73;;;;;;;2.88;81.81;98899.91;4964354;28;20042;-76
2021/12/11 04:01:29;;;;;;;49.65;30.55;;;;;;;2.88;81.88;98897.31;4970239;28;20035;-77
2021/12/11 04:03:59;;;;;;;46.80;28.15;;;;;;;2.92;81.82;98898.91;4951865;28;20054;-77
2021/12/11 04:06:26;;;;;;;61.10;32.08;;;;;;;2.87;81.76;98895.63;4950396;28;20114;-77
2021/12/11 04:08:53;;;;;;;53.40;29.13;;;;;;;2.85;81.52;98905.22;4960700;28;20146;-76
2021/12/11 04:11:23;;;;;;;55.78;30.95;;;;;;;2.84;81.90;98909.59;4970676;28;20042;-75
2021/12/11 04:13:52;;;;;;;51.80;28.15;;;;;;;2.83;81.98;98917.44;4954113;28;20403;-75
2021/12/11 04:16:18;;;;;;;59.67;29.67;;;;;;;2.83;81.89;98914.81;4971908;28;20031;-77
2021/12/11 04:18:44;;;;;;;53.38;31.50;;;;;;;2.83;81.98;98928.72;4969541;28;20034;-76
2021/12/11 04:21:11;;;;;;;53.70;30.90;;;;;;;2.83;82.27;98928.72;4967161;28;20635;-77
2021/12/11 04:23:37;;;;;;;61.03;30.42;;;;;;;2.84;82.03;98927.81;4970125;28;20035;-77
2021/12/11 04:26:03;;;;;;;71.72;34.50;;;;;;;2.87;81.96;98942.47;4970033;28;20113;-76
2021/12/11 04:28:32;;;;;;;61.22;33.53;;;;;;;2.90;81.71;98950.16;4970746;28;20047;-76
2021/12/11 04:31:04;;;;;;;49.53;28.42;;;;;;;2.94;81.97;98950.03;4970706;28;20041;-77
2021/12/11 04:33:38;;;;;;;54.65;29.45;;;;;;;2.91;81.67;98955.34;4970500;28;20038;-77
2021/12/11 04:36:06;;;;;;;52.25;30.70;;;;;;;2.90;81.69;98956.22;4969610;28;20506;-78
2021/12/11 04:38:31;;;;;;;47.90;28.02;;;;;;;2.94;82.13;98957.84;4970840;28;20034;-76
2021/12/11 04:40:58;;;;;;;52.47;32.05;;;;;;;2.96;81.87;98966.47;4956224;28;20411;-77
2021/12/11 04:43:25;;;;;;;49.60;28.90;;;;;;;2.99;82.02;98965.50;4950610;28;20055;-76
2021/12/11 04:46:04;;;;;;;51.95;27.55;;;;;;;3.01;82.04;98966.31;4944559;28;20399;-77
2021/12/11 04:49:00;;;;;;;53.50;30.08;;;;;;;2.99;82.00;98965.50;4952292;28;20058;-75
2021/12/11 04:51:41;;;;;;;79.10;37.17;;;;;;;2.97;81.69;98967.31;4952124;28;20035;-76
2021/12/11 05:02:49;;;;;;;57.90;34.38;;;;;;;2.89;82.86;98977.97;4954728;28;20668;-74
2021/12/11 05:05:22;;;;;;;68.72;34.10;;;;;;;2.91;82.66;98986.59;4974116;28;20139;-77
2021/12/11 05:10:37;;;;;;;73.70;34.97;;;;;;;2.89;83.00;98987.53;4969966;28;20050;-75
2021/12/11 05:13:02;;;;;;;58.83;33.28;;;;;;;2.83;83.22;98988.56;4971584;28;20138;-78
2021/12/11 05:15:32;;;;;;;73.40;32.78;;;;;;;2.82;83.17;98994.66;4971986;28;20051;-75
2021/12/11 05:17:59;;;;;;;56.70;29.45;;;;;;;2.86;83.50;98995.44;4970591;28;20034;-77
2021/12/11 05:20:29;;;;;;;76.40;34.20;;;;;;;2.90;83.43;99002.25;4969909;28;20561;-76
2021/12/11 05:22:55;;;;;;;58.25;29.88;;;;;;;2.95;83.07;99000.34;4973939;28;20035;-74
2021/12/11 05:25:21;;;;;;;54.65;29.38;;;;;;;2.97;82.93;99008.97;4973519;28;20062;-74
2021/12/11 05:27:47;;;;;;;53.53;30.00;;;;;;;2.98;83.08;99010.69;4975707;28;20039;-78
2021/12/11 05:30:18;;;;;;;51.25;27.35;;;;;;;3.02;82.61;99022.69;4977301;28;20062;-74
2021/12/11 05:32:44;;;;;;;51.33;28.00;;;;;;;2.96;83.15;99012.47;4981724;28;20039;-74
2021/12/11 05:35:11;;;;;;;56.85;32.88;;;;;;;3.02;83.10;99027.91;4977793;28;20098;-76
2021/12/11 05:37:37;;;;;;;53.13;28.20;;;;;;;3.05;83.01;99027.78;4978419;28;20050;-77
2021/12/11 05:40:06;;;;;;;69.80;33.25;;;;;;;3.03;82.39;99033.94;4978413;28;20035;-76
2021/12/11 05:42:32;;;;;;;71.63;36.17;;;;;;;3.00;82.68;99047.91;4977349;28;20038;-76
2021/12/11 05:44:57;;;;;;;60.45;32.10;;;;;;;2.99;82.85;99047.06;4977477;28;20027;-77
2021/12/11 05:47:22;;;;;;;60.22;31.63;;;;;;;2.99;83.04;99051.44;4962583;28;20043;-78
2021/12/11 05:49:49;;;;;;;63.35;32.95;;;;;;;2.98;82.81;99058.41;4979699;28;20031;-78
2021/12/11 05:52:16;;;;;;;60.05;32.55;;;;;;;2.93;82.83;99059.41;4978284;28;20034;-75
2021/12/11 05:54:45;;;;;;;62.65;31.90;;;;;;;2.93;83.09;99062.00;4972612;28;20485;-76
2021/12/11 05:57:14;;;;;;;60.55;30.38;;;;;;;2.91;82.91;99063.84;4975299;28;20045;-76
2021/12/11 05:59:42;;;;;;;71.25;33.17;;;;;;;2.93;82.90;99065.50;4973308;28;20120;-77
2021/12/11 06:02:17;;;;;;;57.78;30.77;;;;;;;2.91;83.17;99069.88;4973836;28;20062;-75
2021/12/11 06:04:45;;;;;;;60.08;32.38;;;;;;;2.94;82.96;99069.78;4974167;28;20128;-77
2021/12/11 06:07:13;;;;;;;67.82;31.75;;;;;;;2.94;83.34;99088.00;4972902;28;20030;-76
2021/12/11 06:09:42;;;;;;;60.50;30.25;;;;;;;2.93;83.21;99083.72;4974990;28;20037;-79
2021/12/11 06:12:11;;;;;;;58.42;30.88;;;;;;;2.96;83.36;99080.16;4965754;28;20093;-78
2021/12/11 06:14:38;;;;;;;61.13;29.33;;;;;;;2.96;83.12;99085.38;4981888;28;20038;-78
2021/12/11 06:17:09;;;;;;;56.42;29.02;;;;;;;2.94;83.24;99088.00;4981224;28;20125;-77
2021/12/11 06:19:36;;;;;;;68.20;34.47;;;;;;;2.95;83.42;99094.06;4975625;28;20062;-74
2021/12/11 06:22:01;;;;;;;62.65;29.95;;;;;;;2.94;83.55;99101.03;4957166;28;20049;-74
2021/12/11 06:24:27;;;;;;;64.35;30.20;;;;;;;2.98;82.83;99109.63;4972409;28;20046;-73
2021/12/11 06:26:55;;;;;;;58.63;28.58;;;;;;;3.00;82.98;99110.41;4954818;28;20035;-75
2021/12/11 06:29:24;;;;;;;57.60;27.38;;;;;;;3.00;82.85;99118.22;4954907;28;20123;-76
2021/12/11 06:31:50;;;;;;;70.15;32.70;;;;;;;2.96;83.17;99121.81;4955675;28;20031;-73
2021/12/11 06:34:16;;;;;;;57.72;31.38;;;;;;;2.93;83.13;99121.88;4955321;28;20050;-75
2021/12/11 06:36:43;;;;;;;61.55;30.95;;;;;;;2.95;83.22;99122.69;4954949;28;20035;-73
2021/12/11 06:39:14;;;;;;;54.38;29.65;;;;;;;2.98;83.18;99125.25;4954513;28;20398;-79
2021/12/11 06:41:41;;;;;;;67.13;33.88;;;;;;;3.01;83.42;99128.59;4954198;28;20094;-74
2021/12/11 06:44:08;;;;;;;54.03;28.30;;;;;;;3.04;83.15;99132.88;4952993;28;20167;-74
2021/12/11 06:46:34;;;;;;;52.00;29.30;;;;;;;3.07;83.04;99140.56;4954340;28;20508;-74
2021/12/11 06:49:00;;;;;;;49.80;27.60;;;;;;;3.09;83.19;99144.00;4952359;28;20097;-74
2021/12/11 06:51:27;;;;;;;50.17;27.30;;;;;;;3.09;82.96;99149.19;4936397;28;20126;-74
2021/12/11 06:53:58;;;;;;;49.30;27.35;;;;;;;3.13;83.05;99155.19;4953684;28;20507;-74
2021/12/11 06:56:24;;;;;;;53.42;30.08;;;;;;;3.17;82.80;99156.78;4950174;28;20059;-73
2021/12/11 06:58:51;;;;;;;49.42;28.67;;;;;;;3.17;82.75;99160.25;4954666;28;20031;-75
2021/12/11 07:01:18;;;;;;;59.08;30.58;;;;;;;3.11;82.62;99175.22;4953690;28;20043;-78
2021/12/11 07:03:44;;;;;;;51.55;26.77;;;;;;;3.11;83.15;99177.81;4953488;28;20084;-73
2021/12/11 07:06:11;;;;;;;59.65;28.15;;;;;;;3.12;83.41;99176.91;4950605;28;20474;-73
2021/12/11 07:08:38;;;;;;;62.75;30.05;;;;;;;3.13;83.06;99179.47;4952343;28;20035;-74
2021/12/11 07:11:05;;;;;;;48.80;27.30;;;;;;;3.13;83.30;99189.91;4953154;28;20117;-76
2021/12/11 07:13:31;;;;;;;45.08;24.52;;;;;;;3.16;83.04;99192.41;4951851;28;20042;-75
2021/12/11 07:15:57;;;;;;;46.40;25.77;;;;;;;3.19;83.02;99197.50;4952688;28;20027;-75
2021/12/11 07:18:24;;;;;;;42.35;22.45;;;;;;;3.21;83.36;99205.28;4953163;28;20047;-76
2021/12/11 07:20:50;;;;;;;45.75;23.75;;;;;;;3.22;83.00;99207.88;4950906;28;20102;-76
2021/12/11 07:23:15;;;;;;;43.45;24.20;;;;;;;3.24;83.10;99215.63;4953903;28;20036;-75
2021/12/11 07:25:46;;;;;;;43.75;22.90;;;;;;;3.24;83.05;99223.44;4971249;28;20502;-76
2021/12/11 07:28:12;;;;;;;37.30;21.75;;;;;;;3.25;83.05;99224.28;4976666;28;20039;-77
2021/12/11 07:30:41;;;;;;;41.88;22.63;;;;;;;3.25;82.88;99226.88;4974832;28;20046;-75
2021/12/11 07:33:07;;;;;;;38.97;21.15;;;;;;;3.22;83.32;99227.81;4973814;28;20031;-77
2021/12/11 07:35:35;;;;;;;37.30;22.83;;;;;;;3.29;83.13;99244.16;4977071;28;20031;-76
2021/12/11 07:38:01;;;;;;;38.60;21.75;;;;;;;3.28;83.08;99245.06;4977196;28;20046;-75
2021/12/11 07:40:31;;;;;;;45.80;24.48;;;;;;;3.29;82.78;99254.56;4978671;28;20402;-76
2021/12/11 07:42:57;;;;;;;45.33;24.08;;;;;;;3.28;83.39;99256.31;4981718;28;20035;-77
2021/12/11 07:45:25;;;;;;;33.00;20.40;;;;;;;3.30;83.53;99262.34;4980323;28;20031;-76
2021/12/11 07:47:51;;;;;;;38.40;22.08;;;;;;;3.34;82.91;99261.34;4973762;28;20062;-77
2021/12/11 07:50:17;;;;;;;32.45;19.42;;;;;;;3.34;83.13;99265.72;4973136;28;20061;-77
2021/12/11 07:52:43;;;;;;;33.97;19.35;;;;;;;3.36;83.25;99261.31;4973048;28;20037;-77
2021/12/11 07:55:10;;;;;;;35.55;18.33;;;;;;;3.35;82.90;99265.69;4971437;28;20038;-77
2021/12/11 07:57:36;;;;;;;31.10;18.00;;;;;;;3.33;83.25;99277.88;4972219;28;20042;-76
2021/12/11 08:00:11;;;;;;;29.73;18.38;;;;;;;3.30;82.98;99272.78;4973070;28;20035;-76
2021/12/11 08:02:36;;;;;;;27.33;17.33;;;;;;;3.31;83.00;99282.28;4976052;28;20041;-75
2021/12/11 08:05:04;;;;;;;34.13;20.90;;;;;;;3.30;82.82;99288.41;4978202;28;20406;-77
2021/12/11 08:07:29;;;;;;;26.52;16.05;;;;;;;3.29;83.06;99294.50;4973894;28;20054;-77
2021/12/11 08:09:55;;;;;;;30.83;19.40;;;;;;;3.29;83.22;99296.25;4976390;28;20057;-77
2021/12/11 08:12:20;;;;;;;34.53;19.88;;;;;;;3.31;82.78;99297.91;4977373;28;20027;-76
2021/12/11 08:14:46;;;;;;;31.83;15.95;;;;;;;3.33;83.14;99305.69;4984954;28;20038;-78
2021/12/11 08:17:11;;;;;;;26.50;16.15;;;;;;;3.39;83.23;99311.56;4987628;28;20411;-75
2021/12/11 08:19:37;;;;;;;21.50;15.32;;;;;;;3.41;83.16;99320.22;4991554;28;20043;-76
2021/12/11 08:22:06;;;;;;;27.75;17.30;;;;;;;3.44;82.72;99329.69;4988478;28;20023;-78
2021/12/11 08:24:34;;;;;;;31.05;18.85;;;;;;;3.46;82.78;99325.28;4988276;28;20054;-75
2021/12/11 08:27:11;;;;;;;28.95;16.55;;;;;;;3.51;83.28;99335.59;4980922;28;20432;-76
2021/12/11 08:29:37;;;;;;;26.55;16.10;;;;;;;3.53;82.97;99342.47;4988548;28;20094;-75
2021/12/11 08:32:03;;;;;;;27.42;16.90;;;;;;;3.54;83.03;99349.38;4990773;28;20023;-75
2021/12/11 08:34:30;;;;;;;29.60;18.38;;;;;;;3.57;82.64;99349.31;4991059;28;20110;-75
2021/12/11 08:36:56;;;;;;;21.35;14.02;;;;;;;3.60;83.03;99337.94;4988155;28;20074;-75
2021/12/11 08:39:22;;;;;;;25.92;15.90;;;;;;;3.63;82.63;99351.75;4986602;28;20058;-74
2021/12/11 08:41:51;;;;;;;24.52;15.30;;;;;;;3.63;82.85;99359.56;4984495;28;20035;-75
2021/12/11 08:44:18;;;;;;;28.23;16.85;;;;;;;3.66;83.18;99364.69;4983857;28;20043;-76
2021/12/11 08:46:49;;;;;;;30.52;18.13;;;;;;;3.66;83.14;99375.09;4982062;28;20038;-75
2021/12/11 08:49:20;;;;;;;30.77;18.20;;;;;;;3.63;83.39;99369.13;4975055;28;20080;-76
2021/12/11 08:51:55;;;;;;;30.73;19.27;;;;;;;3.67;83.64;99386.41;4996464;28;20107;-78
2021/12/11 08:54:24;;;;;;;29.25;18.20;;;;;;;3.65;83.53;99383.84;4980814;28;20130;-75
2021/12/11 08:56:50;;;;;;;33.25;19.25;;;;;;;3.65;83.64;99386.44;4976256;28;20042;-79
2021/12/11 08:59:19;;;;;;;28.55;17.60;;;;;;;3.72;83.85;99389.75;4974824;28;20047;-75
2021/12/11 09:01:52;;;;;;;29.33;17.50;;;;;;;3.76;83.47;99390.50;4973107;28;20125;-76
2021/12/11 09:04:27;;;;;;;27.75;16.83;;;;;;;3.80;83.55;99387.78;4974230;28;20080;-77
2021/12/11 09:06:55;;;;;;;39.13;19.05;;;;;;;3.80;84.28;99386.91;4973555;28;20030;-75
2021/12/11 09:09:29;;;;;;;34.88;20.15;;;;;;;3.87;84.39;99393.69;4976383;28;20037;-74
2021/12/11 09:12:18;;;;;;;32.63;19.08;;;;;;;3.94;84.53;99390.00;4974685;28;20109;-75
2021/12/11 09:14:51;;;;;;;33.38;16.50;;;;;;;4.01;84.34;99396.75;4972257;28;20461;-75
2021/12/11 09:17:25;;;;;;;32.90;18.33;;;;;;;4.09;84.13;99406.97;4953967;28;20097;-75
2021/12/11 09:20:17;;;;;;;36.67;19.98;;;;;;;4.11;83.87;99417.31;4971223;28;20035;-76
2021/12/11 09:23:09;;;;;;;43.55;18.92;;;;;;;4.18;84.01;99414.50;4962020;28;20110;-76
2021/12/11 09:25:52;;;;;;;32.38;17.80;;;;;;;4.22;84.26;99423.94;4963872;28;20031;-77
2021/12/11 09:28:49;;;;;;;36.95;21.15;;;;;;;4.30;84.17;99428.94;4972297;28;20554;-76
2021/12/11 09:31:18;;;;;;;;;;;;;;;4.36;84.19;99427.94;4923662;28;20038;-76
2021/12/11 09:33:50;;;;;;;33.42;18.85;;;;;;;4.38;83.83;99431.31;4962856;28;19914;-78
2021/12/11 09:36:33;;;;;;;28.35;17.10;;;;;;;4.44;84.08;99437.22;4957934;28;20050;-75
2021/12/11 09:39:13;;;;;;;36.05;18.52;;;;;;;4.49;83.85;99443.16;4965721;28;20051;-77
2021/12/11 09:41:38;;;;;;;32.38;18.67;;;;;;;4.51;83.77;99446.59;4974574;28;20043;-78
2021/12/11 09:44:08;;;;;;;28.83;17.80;;;;;;;4.55;83.61;99449.09;4959379;28;20039;-79
2021/12/11 09:46:47;;;;;;;30.05;18.38;;;;;;;4.61;83.86;99448.94;4953491;28;20028;-78
2021/12/11 09:49:19;;;;;;;35.60;16.50;;;;;;;4.72;83.84;99457.25;4958524;28;20063;-77
2021/12/11 09:51:47;;;;;;;30.90;16.80;;;;;;;4.79;84.17;99455.34;4971627;28;20079;-81
2021/12/11 09:54:20;;;;;;;33.45;18.33;;;;;;;4.88;83.75;99462.88;4959226;28;20065;-78
2021/12/11 09:57:08;;;;;;;29.98;14.68;;;;;;;4.93;83.51;99464.44;4956543;28;20123;-77
2021/12/11 09:59:36;;;;;;;30.05;15.88;;;;;;;4.95;83.97;99469.63;4958349;28;20035;-76
2021/12/11 10:02:09;;;;;;;34.08;16.17;;;;;;;4.96;84.22;99468.72;4941265;28;20035;-78
2021/12/11 10:04:40;;;;;;;33.05;16.95;;;;;;;5.01;84.07;99477.25;4959222;28;20094;-77
2021/12/11 10:07:31;;;;;;;32.92;17.02;;;;;;;5.06;83.96;99466.66;4937644;28;20478;-73
2021/12/11 10:10:20;;;;;;;23.38;14.75;;;;;;;5.17;83.72;99477.66;4948882;28;20134;-72
2021/12/11 10:12:51;;;;;;;27.27;13.45;;;;;;;5.23;83.65;99474.81;4964979;28;20031;-73
2021/12/11 10:15:20;;;;;;;31.38;15.32;;;;;;;5.26;83.04;99484.31;4954063;28;20035;-72
2021/12/11 10:17:57;;;;;;;19.48;12.43;;;;;;;5.31;83.34;99480.63;4962739;28;20037;-72
2021/12/11 10:20:37;;;;;;;23.38;15.25;;;;;;;5.37;83.01;99474.38;4972471;28;20031;-71
2021/12/11 10:23:05;;;;;;;20.67;12.82;;;;;;;5.40;82.91;99476.88;4969912;28;20031;-72
2021/12/11 10:25:34;;;;;;;27.38;12.77;;;;;;;5.42;82.80;99469.00;4953108;28;20035;-73
2021/12/11 10:28:03;;;;;;;20.50;13.45;;;;;;;5.47;82.95;99477.53;4952275;28;20082;-72
2021/12/11 10:30:36;;;;;;;23.73;12.50;;;;;;;5.48;83.05;99479.25;4961253;28;20398;-73
2021/12/11 10:33:03;;;;;;;26.60;11.68;;;;;;;5.43;82.71;99478.53;4967751;28;20124;-71
2021/12/11 10:35:34;;;;;;;24.75;11.60;;;;;;;5.46;82.42;99496.72;4952030;28;20047;-73
2021/12/11 10:38:02;;;;;;;24.65;11.95;;;;;;;5.47;82.63;99495.84;4952580;28;20174;-72
2021/12/11 10:40:36;;;;;;;27.55;13.57;;;;;;;5.53;82.11;99499.09;4945862;28;20042;-71
2021/12/11 10:43:16;;;;;;;24.50;11.77;;;;;;;5.57;82.37;99500.72;4955268;28;20034;-72
2021/12/11 10:45:43;;;;;;;24.45;12.43;;;;;;;5.57;82.81;99499.84;4965559;28;20130;-71
2021/12/11 10:48:12;;;;;;;24.05;13.73;;;;;;;5.58;82.42;99517.25;4965223;28;20170;-72
2021/12/11 10:51:06;;;;;;;25.45;12.65;;;;;;;5.58;82.22;99510.25;4965817;28;20038;-72
2021/12/11 10:53:32;;;;;;;27.60;14.15;;;;;;;5.58;82.59;99520.72;4965423;28;20118;-72
2021/12/11 10:56:00;;;;;;;22.73;14.13;;;;;;;5.56;82.68;99521.66;4965456;28;20066;-72
2021/12/11 10:58:30;;;;;;;22.30;12.65;;;;;;;5.53;82.53;99525.25;4967468;28;20651;-72
2021/12/11 11:01:06;;;;;;;25.58;16.55;;;;;;;5.48;82.98;99531.53;4951950;28;20050;-74
2021/12/11 11:03:35;;;;;;;24.15;12.75;;;;;;;5.42;83.29;99529.13;4951282;28;20046;-71
2021/12/11 11:06:00;;;;;;;21.77;12.00;;;;;;;5.40;83.58;99531.78;4946357;28;20723;-72
2021/12/11 11:08:26;;;;;;;20.10;11.35;;;;;;;5.42;83.66;99529.13;4948464;28;20043;-71
2021/12/11 11:10:56;;;;;;;16.35;8.60;;;;;;;5.36;82.27;99522.31;4947678;28;20494;-72
2021/12/11 11:13:23;;;;;;;17.35;9.18;;;;;;;5.32;82.59;99528.56;4963587;28;20789;-71
2021/12/11 11:15:50;;;;;;;20.13;10.65;;;;;;;5.35;83.19;99538.91;4964462;28;20053;-72
2021/12/11 11:18:18;;;;;;;18.77;10.68;;;;;;;5.37;82.96;99532.75;4967041;28;20038;-72
2021/12/11 11:20:56;;;;;;;28.88;11.43;;;;;;;5.40;82.82;99549.22;4965466;28;20043;-72
2021/12/11 11:23:22;;;;;;;22.48;12.88;;;;;;;5.40;82.83;99544.00;4965177;28;20121;-70
2021/12/11 11:25:51;;;;;;;24.27;9.68;;;;;;;5.41;82.47;99551.78;4951205;28;20039;-79
2021/12/11 11:28:20;;;;;;;23.00;11.18;;;;;;;5.40;82.92;99554.47;4952969;28;20126;-82
2021/12/11 11:31:10;;;;;;;22.60;11.40;;;;;;;5.36;83.29;99558.91;4926583;28;20050;-79
2021/12/11 11:33:37;;;;;;;23.20;10.15;;;;;;;5.31;83.37;99564.28;4964236;28;20097;-79
2021/12/11 11:36:07;;;;;;;15.40;9.43;;;;;;;5.27;83.60;99567.91;4946162;28;20098;-81
2021/12/11 11:38:36;;;;;;;16.55;8.95;;;;;;;5.22;83.55;99567.19;4975140;28;20038;-81
2021/12/11 11:41:09;;;;;;;18.67;8.63;;;;;;;5.22;83.65;99576.78;4971975;28;20518;-82
2021/12/11 11:43:35;;;;;;;14.88;8.02;;;;;;;5.22;83.57;99576.78;4966294;28;20046;-81
2021/12/11 11:46:01;;;;;;;14.27;7.25;;;;;;;5.22;83.57;99580.28;4974613;28;20039;-79
2021/12/11 11:48:30;;;;;;;13.55;7.07;;;;;;;5.20;83.04;99583.84;4968455;28;20387;-80
2021/12/11 11:50:59;;;;;;;19.05;7.15;;;;;;;5.20;82.54;99583.84;4984711;28;20030;-80
2021/12/11 11:53:25;;;;;;;11.60;6.25;;;;;;;5.17;82.23;99579.56;4982523;28;20102;-80
2021/12/11 11:55:58;;;;;;;9.60;6.07;;;;;;;5.21;82.31;99586.38;4974676;28;20058;-80